SAF weather

Santa Fe Municipal Airport
Santa Fe, New Mexico, United States

Public forecast

Using degrees Fahrenheit for public forecast. Weather courtesy of forecast.io.

Current aviation weather report (METAR) for Santa Fe Municipal Airport

Retrieved 2020/04/06 08:53 UTC (21 minutes ago):

KSAF 060853Z AUTO 36005KT 10SM CLR 05/M09 A3000 RMK AO2 SLP094 T00501089 50006

Aviation forecast (TAF) for Santa Fe Municipal Airport

Retrieved 2020/04/06 06:46 UTC (2 hours ago):

TAF KSAF 060544Z 0606/0706 VRB05KT P6SM SCT250 FM062100 24015KT P6SM FEW250 FM070200 VRB04KT P6SM FEW250